createdAt,value
2019-05-22T00:05:11.240Z,99784.80
2019-05-22T00:10:20.113Z,99793.22
2019-05-22T00:15:25.024Z,99793.22
2019-05-22T00:20:29.568Z,99786.50
2019-05-22T00:25:35.373Z,99783.95
2019-05-22T00:30:42.067Z,99787.14
2019-05-22T00:35:46.055Z,99787.14
2019-05-22T00:40:55.106Z,99776.53
2019-05-22T00:45:58.910Z,99776.53
2019-05-22T00:51:21.782Z,99779.87
2019-05-22T00:56:43.931Z,99785.75
2019-05-22T01:01:53.043Z,99788.94
2019-05-22T01:06:58.555Z,99800.68
2019-05-22T01:12:02.841Z,99808.38
2019-05-22T01:17:08.173Z,99804.48
2019-05-22T01:22:13.594Z,99798.91
2019-05-22T01:27:18.283Z,99800.90
2019-05-22T01:32:33.641Z,99808.63
2019-05-22T01:37:37.611Z,99802.52
2019-05-22T01:42:42.099Z,99807.55
2019-05-22T01:47:54.154Z,99812.93
2019-05-22T01:52:59.274Z,99815.12
2019-05-22T01:58:04.760Z,99811.44
2019-05-22T02:03:08.562Z,99819.51
2019-05-22T02:08:12.523Z,99824.55
2019-05-22T02:13:19.015Z,99825.54
2019-05-22T02:18:23.130Z,99820.16
2019-05-22T02:23:26.929Z,99818.96
2019-05-22T02:28:30.689Z,99818.96
2019-05-22T02:33:36.648Z,99821.66
2019-05-22T02:38:40.429Z,99836.45
2019-05-22T02:43:44.211Z,99836.45
2019-05-22T02:48:49.152Z,99835.61
2019-05-22T02:53:55.043Z,99845.03
2019-05-22T02:58:58.890Z,99852.05
2019-05-22T03:04:02.717Z,99848.02
2019-05-22T03:09:29.342Z,99848.02
2019-05-22T03:14:35.106Z,99837.96
2019-05-22T03:19:42.789Z,99861.33
2019-05-22T03:24:46.726Z,99861.33
2019-05-22T03:29:52.760Z,99871.45
2019-05-22T03:34:56.660Z,99876.98
2019-05-22T03:40:00.780Z,99876.98
2019-05-22T03:45:05.709Z,99890.73
2019-05-22T03:50:09.738Z,99891.78
2019-05-22T03:55:14.174Z,99901.49
2019-05-22T04:00:19.840Z,99903.10
2019-05-22T04:05:25.201Z,99909.13
2019-05-22T04:10:34.975Z,99913.66
2019-05-22T04:15:39.300Z,99923.52
2019-05-22T04:20:43.167Z,99937.08
2019-05-22T04:25:47.070Z,99937.08
2019-05-22T04:30:50.861Z,99932.13
2019-05-22T04:35:55.250Z,99932.13
2019-05-22T04:40:59.891Z,99934.02
2019-05-22T04:46:08.444Z,99934.02
2019-05-22T04:51:30.020Z,99941.03
2019-05-22T04:56:33.984Z,99941.03
2019-05-22T05:01:38.200Z,99955.48
2019-05-22T05:06:41.967Z,99948.05
2019-05-22T05:11:45.740Z,99953.05
2019-05-22T05:16:49.561Z,99953.05
2019-05-22T05:21:53.334Z,99954.88
2019-05-22T05:26:58.031Z,99967.27
2019-05-22T05:32:02.917Z,99968.27
2019-05-22T05:37:08.130Z,99968.27
2019-05-22T05:42:11.901Z,99974.84
2019-05-22T05:47:15.673Z,99979.38
2019-05-22T05:52:19.740Z,99984.19
2019-05-22T05:58:05.758Z,99982.14
2019-05-22T06:03:29.975Z,99986.17
2019-05-22T06:08:34.501Z,99986.17
2019-05-22T06:13:38.568Z,99989.82
2019-05-22T06:18:42.830Z,100006.59
2019-05-22T06:24:14.319Z,100006.59
2019-05-22T06:29:19.754Z,100008.97
2019-05-22T06:34:24.180Z,100020.30
2019-05-22T06:39:27.942Z,100016.59
2019-05-22T06:44:33.926Z,100041.85
2019-05-22T06:50:07.275Z,100043.02
2019-05-22T06:55:11.240Z,100043.02
2019-05-22T07:00:18.251Z,100048.81
2019-05-22T07:05:22.149Z,100047.61
2019-05-22T07:10:26.062Z,100047.61
2019-05-22T07:15:52.320Z,100066.91
2019-05-22T07:20:58.260Z,100081.59
2019-05-22T07:26:04.872Z,100084.02
2019-05-22T07:31:08.721Z,100089.41
2019-05-22T07:36:16.633Z,100088.96
2019-05-22T07:41:18.420Z,100083.52
2019-05-22T07:46:22.232Z,100083.77
2019-05-22T07:51:26.055Z,100097.52
2019-05-22T07:56:29.847Z,100092.25
2019-05-22T08:01:33.665Z,100092.25
2019-05-22T08:06:37.610Z,100096.77
2019-05-22T08:11:41.395Z,100098.86
2019-05-22T08:16:45.169Z,100116.66
2019-05-22T08:21:49.184Z,100116.66
2019-05-22T08:26:54.827Z,100122.46
2019-05-22T08:31:58.521Z,100123.81
2019-05-22T08:37:02.326Z,100135.09
2019-05-22T08:42:09.386Z,100139.25
2019-05-22T08:47:16.112Z,100139.25
2019-05-22T08:52:23.601Z,100156.25
2019-05-22T08:57:25.975Z,100153.24
2019-05-22T09:02:30.667Z,100157.73
2019-05-22T09:07:35.150Z,100157.62
2019-05-22T09:12:38.927Z,100173.13
2019-05-22T09:17:42.988Z,100168.89
2019-05-22T09:22:47.301Z,100168.89
2019-05-22T09:27:51.185Z,100175.01
2019-05-22T09:32:56.189Z,100173.89
2019-05-22T09:37:59.983Z,100173.89
2019-05-22T09:43:05.221Z,100171.05
2019-05-22T09:48:08.991Z,100181.42
2019-05-22T09:53:13.057Z,100181.59
2019-05-22T09:58:17.233Z,100190.34
2019-05-22T10:03:21.312Z,100171.70
2019-05-22T10:08:25.572Z,100196.23
2019-05-22T10:13:29.537Z,100196.23
2019-05-22T10:18:33.419Z,100198.35
2019-05-22T10:23:37.273Z,100208.83
2019-05-22T10:28:42.284Z,100209.97
2019-05-22T10:33:46.109Z,100209.97
2019-05-22T10:38:49.931Z,100211.85
2019-05-22T10:43:54.162Z,100220.25
2019-05-22T10:48:57.942Z,100222.18
2019-05-22T10:54:01.794Z,100223.13
2019-05-22T10:59:05.633Z,100211.58
2019-05-22T11:04:10.262Z,100211.58
2019-05-22T11:09:15.869Z,100219.38
2019-05-22T11:14:19.658Z,100225.28
2019-05-22T11:19:23.571Z,100225.45
2019-05-22T11:24:27.362Z,100229.88
2019-05-22T11:29:31.200Z,100231.10
2019-05-22T11:34:35.419Z,100235.23
2019-05-22T11:39:44.493Z,100248.27
2019-05-22T11:44:45.314Z,100238.15
2019-05-22T11:49:49.120Z,100242.32
2019-05-22T11:54:52.905Z,100247.20
2019-05-22T11:59:56.697Z,100244.49
2019-05-22T12:05:00.746Z,100248.98
2019-05-22T12:10:06.004Z,100258.54
2019-05-22T12:15:10.564Z,100264.95
2019-05-22T12:20:14.741Z,100264.95
2019-05-22T12:25:19.047Z,100277.27
2019-05-22T12:30:22.833Z,100277.22
2019-05-22T12:35:27.773Z,100266.84
2019-05-22T12:40:33.884Z,100266.84
2019-05-22T12:45:37.652Z,100293.92
2019-05-22T12:50:41.432Z,100288.09
2019-05-22T12:55:45.217Z,100288.09
2019-05-22T13:00:49.541Z,100295.50
2019-05-22T13:05:53.525Z,100305.77
2019-05-22T13:10:57.627Z,100296.36
2019-05-22T13:16:02.213Z,100300.77
2019-05-22T13:21:06.251Z,100306.76
2019-05-22T13:26:10.940Z,100306.76
2019-05-22T13:31:14.872Z,100311.75
2019-05-22T13:36:19.239Z,100311.75
2019-05-22T13:41:23.043Z,100308.30
2019-05-22T13:46:26.931Z,100325.91
2019-05-22T13:51:30.797Z,100325.91
2019-05-22T13:56:34.614Z,100341.98
2019-05-22T14:01:38.581Z,100341.98
2019-05-22T14:06:42.376Z,100340.11
2019-05-22T14:11:46.367Z,100349.22
2019-05-22T14:16:50.199Z,100348.87
2019-05-22T14:21:54.318Z,100348.87
2019-05-22T14:26:58.145Z,100336.19
2019-05-22T14:32:02.029Z,100338.86
2019-05-22T14:37:07.010Z,100343.87
2019-05-22T14:42:11.156Z,100348.35
2019-05-22T14:47:16.453Z,100348.59
2019-05-22T14:52:20.755Z,100349.55
2019-05-22T14:57:24.906Z,100349.55
2019-05-22T15:02:28.736Z,100356.11
2019-05-22T15:07:32.704Z,100360.62
2019-05-22T15:12:36.626Z,100364.98
2019-05-22T15:17:40.456Z,100368.55
2019-05-22T15:22:44.303Z,100368.55
2019-05-22T15:27:48.198Z,100368.31
2019-05-22T15:32:52.176Z,100368.31
2019-05-22T15:37:56.271Z,100371.33
2019-05-22T15:43:00.114Z,100374.62
2019-05-22T15:48:08.373Z,100385.87
2019-05-22T15:53:17.183Z,100387.52
2019-05-22T15:58:21.002Z,100385.70
2019-05-22T16:03:27.158Z,100387.12
2019-05-22T16:08:31.816Z,100372.41
2019-05-22T16:13:35.842Z,100372.51
2019-05-22T16:18:40.465Z,100376.44
2019-05-22T16:23:44.488Z,100376.44
2019-05-22T16:28:48.866Z,100379.92
2019-05-22T16:33:53.524Z,100377.06
2019-05-22T16:38:57.359Z,100383.16
2019-05-22T16:44:01.159Z,100383.16
2019-05-22T16:49:05.538Z,100374.66
2019-05-22T16:54:09.820Z,100374.66
2019-05-22T16:59:14.443Z,100393.13
2019-05-22T17:04:18.985Z,100393.13
2019-05-22T17:09:22.917Z,100398.70
2019-05-22T17:14:26.742Z,100407.52
2019-05-22T17:19:30.976Z,100397.03
2019-05-22T17:24:34.839Z,100405.66
2019-05-22T17:29:39.440Z,100404.00
2019-05-22T17:34:43.476Z,100404.61
2019-05-22T17:39:48.541Z,100401.45
2019-05-22T17:44:53.062Z,100400.31
2019-05-22T17:49:56.987Z,100400.31
2019-05-22T17:55:00.832Z,100403.52
2019-05-22T18:00:07.322Z,100408.25
2019-05-22T18:05:12.127Z,100409.84
2019-05-22T18:10:16.467Z,100409.84
2019-05-22T18:15:20.500Z,100422.89
2019-05-22T18:20:24.546Z,100422.89
2019-05-22T18:25:28.485Z,100424.47
2019-05-22T18:30:33.931Z,100424.47
2019-05-22T18:35:37.726Z,100437.81
2019-05-22T18:40:41.521Z,100437.81
2019-05-22T18:45:45.562Z,100449.40
2019-05-22T18:50:50.576Z,100448.92
2019-05-22T18:55:54.351Z,100466.16
2019-05-22T19:00:58.151Z,100455.64
2019-05-22T19:06:02.541Z,100479.33
2019-05-22T19:11:06.413Z,100477.76
2019-05-22T19:16:10.216Z,100483.01
2019-05-22T19:21:14.085Z,100490.09
2019-05-22T19:26:18.365Z,100490.22
2019-05-22T19:31:22.150Z,100485.57
2019-05-22T19:36:25.996Z,100486.91
2019-05-22T19:41:30.175Z,100491.56
2019-05-22T19:46:34.226Z,100490.71
2019-05-22T19:51:38.273Z,100490.71
2019-05-22T19:56:42.959Z,100493.64
2019-05-22T20:01:46.824Z,100496.06
2019-05-22T20:06:51.359Z,100497.55
2019-05-22T20:11:55.163Z,100507.19
2019-05-22T20:16:59.030Z,100496.08
2019-05-22T20:22:02.819Z,100502.67
2019-05-22T20:27:09.567Z,100500.47
2019-05-22T20:32:13.176Z,100497.30
2019-05-22T20:37:18.344Z,100499.98
2019-05-22T20:42:22.596Z,100493.37
2019-05-22T20:47:26.977Z,100493.37
2019-05-22T20:52:30.862Z,100494.13
2019-05-22T20:57:35.810Z,100499.14
2019-05-22T21:02:40.290Z,100500.35
2019-05-22T21:07:47.584Z,100503.41
2019-05-22T21:12:52.092Z,100511.22
2019-05-22T21:17:56.295Z,100515.87
2019-05-22T21:23:00.182Z,100515.87
2019-05-22T21:28:04.379Z,100520.14
2019-05-22T21:33:08.543Z,100520.98
2019-05-22T21:38:12.686Z,100526.00
2019-05-22T21:43:17.108Z,100526.00
2019-05-22T21:48:21.517Z,100523.19
2019-05-22T21:53:25.459Z,100531.75
2019-05-22T21:58:29.297Z,100533.09
2019-05-22T22:03:38.249Z,100540.58
2019-05-22T22:08:42.402Z,100550.84
2019-05-22T22:13:46.604Z,100550.75
2019-05-22T22:18:50.844Z,100551.59
2019-05-22T22:23:55.231Z,100555.02
2019-05-22T22:28:59.100Z,100546.22
2019-05-22T22:34:16.199Z,100546.22
2019-05-22T22:39:21.579Z,100555.14
2019-05-22T22:44:25.942Z,100555.14
2019-05-22T22:49:30.920Z,100553.92
2019-05-22T22:54:35.853Z,100545.11
2019-05-22T22:59:39.767Z,100555.50
2019-05-22T23:04:44.054Z,100555.50
2019-05-22T23:09:48.739Z,100553.54
2019-05-22T23:14:54.025Z,100564.42
2019-05-22T23:19:58.562Z,100571.88
2019-05-22T23:25:02.820Z,100571.75
2019-05-22T23:30:08.958Z,100583.98
2019-05-22T23:35:14.011Z,100585.20
2019-05-22T23:40:23.467Z,100585.20
2019-05-22T23:45:27.410Z,100591.06
2019-05-22T23:50:31.888Z,100594.03
2019-05-22T23:55:36.453Z,100583.00
